Airfield :
LOGIN :

Register | Disclaimer

   EN    FR    IT 

 










Legend :    VFR   Marginal VFR   IFR   Intensive IFR   Very Intensive IFR
Visi :
Ceiling :
>= 8 km
>= 3000ft
5 to 8 km
1000 to 3000 ft
1500m to 5 km
500 to 1000 ft
800 to 1500m
200 to 500 ft
< 800m
< 200 ft
Symbols :   Thunderstorms  Fog  Heavy snow  Heavy precipitations  Wind > 20 kt
SIGMETs :     Misc.  Thunderstorms  Icing  Turbulence  Mountain Waves  Volcanic Ashes






- Airport Elevation : 47 ft
- IATA code : EPU


EEPU - Parnu

CURRENT METAR :
  • 250920Z AUTO 31007KT 270V360 9999 NCD 22/07 Q1021

EXPIRED METARs :
  • 250850Z AUTO 32005KT 280V010 9999 NCD 21/08 Q1021
  • 250820Z AUTO 31005KT 250V350 9999 NCD 21/09 Q1021
  • 250750Z AUTO 30005KT 240V350 9999 NCD 20/09 Q1021
  • 250720Z AUTO 32006KT 270V010 9999 FEW002/// 19/10 Q1021
  • 250650Z AUTO 30006KT 270V360 9999 NCD 18/10 Q1021
  • 250620Z AUTO 32005KT 280V360 9999 NCD 18/10 Q1021
  • 250550Z AUTO 34005KT 300V010 9999 NCD 18/11 Q1020
  • 250520Z AUTO 32006KT 280V350 9999 NCD 17/12 Q1020
  • 250450Z AUTO 32005KT 270V020 9999 FEW002/// 16/13 Q1020

Expired Forecast.



MET'MAP, your aeronautical weather chart ! - Copyright ORBIFLY December 2007 - Disclaimer

ORBIFLY MET'MAP TEAM :

Programming & Development : Alexandra Zaïnal
Original concept : Baudouin d'Aumeries
Technical & hardware support : Manuel Goepfert
Assistance : Marc-Olivier Méhu




SOURCES & CREDITS :

   NOAA